Dobrodošli na spletni strani vremenske postaje Senovo. Vse informacije so informativnega značaja, saj vremenska postaja ni del državne mreže meteoroloških postaj. OBVESTILO: Letni količini padavin navedeni na spletni strani je potrebno prišteti 98,1 mm, zaradi izgube podatkov.


Posebna pozornost v zvezi z vremenskimi dogajanji ni potrebna.    Posebna pozornost v zvezi z vremenskimi dogajanji ni potrebna.

Pogled proti Armezu več informacij Pogled proti Armezu


Lisca več informacij Lisca


Radar strel več informacij blitzortung!


Radar padavin več informacij rain snow radar


Obiščite še:

Template documentation
and downloads

And another site



Weather Underground, zgodovina - Tekstovno

Dnevni povzetek za Avgust 5, 2017 Enote:  Angleško    Metrično   Obe
« Predhodni Dan
Naslednji Dan »
Dnevni Tedenski Mesečni Letni Po meri
  Višja: Nižja: Povprečje:
Temperatura: 93 °F 67.6 °F 81.5 °F
Točka rosišča: 69.1 °F 59.2 °F 65.5 °F
Vlažnost: 87 % 42 % 60 %
Hitrost vetra: 8.4 mph 0 mph 2.2 mph
Sunki vetra: 21.3 mph - -
Veter:- - ESE
Zračni tlak: 30 in 29.9 in -
Padavine: 0 in    
Historical Graphs
 
 
Tabelarni podarki za Avgust 5, 2017
Čas Temperatura Točka rosišča Zračni tlak Veter Hitrost vetra Sunki vetra Vlažnost Intenziteta padavin (urna)
00:04 81 °F 69.1 °F 29.9 in NE 5.8 mph 17.4 mph 67 % 0 in
00:09 81.5 °F 67.3 °F 29.9 in NE 7.1 mph 17.4 mph 62 % 0 in
00:14 81.9 °F 67.1 °F 29.9 in ENE 6.6 mph 15.2 mph 61 % 0 in
00:19 81.9 °F 66 °F 29.9 in NE 7.4 mph 18.1 mph 59 % 0 in
00:24 81.9 °F 64.6 °F 29.9 in NE 8.4 mph 21.3 mph 56 % 0 in
00:29 81.7 °F 63.9 °F 29.9 in ENE 7 mph 21.3 mph 55 % 0 in
00:34 81.7 °F 64.6 °F 29.9 in ENE 5.5 mph 12.1 mph 56 % 0 in
00:39 81.5 °F 63.3 °F 29.9 in ENE 5 mph 12.3 mph 54 % 0 in
00:44 81.5 °F 62.8 °F 29.9 in ENE 6 mph 13 mph 53 % 0 in
00:49 81.5 °F 61.5 °F 29.9 in ENE 7 mph 15.2 mph 51 % 0 in
00:54 81.3 °F 61.5 °F 29.9 in NE 6.9 mph 15.2 mph 51 % 0 in
00:59 81.1 °F 61.9 °F 29.9 in ENE 6.5 mph 15.2 mph 52 % 0 in
01:04 81 °F 61.2 °F 30 in East 5.1 mph 11 mph 51 % 0 in
01:09 81 °F 60.6 °F 30 in East 4.5 mph 11.4 mph 50 % 0 in
01:14 81 °F 60.6 °F 30 in ENE 6.2 mph 12.3 mph 50 % 0 in
01:19 81 °F 60.6 °F 29.9 in ENE 5.8 mph 12.3 mph 50 % 0 in
01:24 80.8 °F 60.4 °F 29.9 in ENE 4.2 mph 9.6 mph 50 % 0 in
01:29 80.6 °F 60.3 °F 29.9 in ENE 5 mph 12.8 mph 50 % 0 in
01:34 80.6 °F 59.7 °F 29.9 in ENE 5.6 mph 12.8 mph 49 % 0 in
01:39 80.6 °F 59.2 °F 29.9 in ENE 5.1 mph 12.8 mph 48 % 0 in
01:44 80.8 °F 59.7 °F 29.9 in ENE 5.2 mph 13 mph 49 % 0 in
01:49 80.6 °F 59.2 °F 29.9 in ENE 6.2 mph 16.1 mph 48 % 0 in
01:50 80.6 °F 59.2 °F 29.9 in ENE 6.4 mph 16.1 mph 48 % 0 in
01:55 80.4 °F 60.1 °F 29.9 in ENE 5.4 mph 16.1 mph 50 % 0 in
02:00 80.2 °F 59.4 °F 29.9 in ENE 4.2 mph 9.6 mph 49 % 0 in
02:05 80.2 °F 59.4 °F 29.9 in ENE 5.4 mph 14.5 mph 49 % 0 in
02:10 80.4 °F 59.5 °F 29.9 in ENE 7.2 mph 14.5 mph 49 % 0 in
02:15 80.4 °F 59.5 °F 29.9 in NE 7 mph 15.9 mph 49 % 0 in
02:20 80.4 °F 59.5 °F 29.9 in ENE 7.6 mph 17.7 mph 49 % 0 in
02:25 80.4 °F 59.5 °F 29.9 in ENE 7.6 mph 17.7 mph 49 % 0 in
02:30 80.2 °F 59.4 °F 29.9 in ENE 6.1 mph 13.9 mph 49 % 0 in
02:35 80.2 °F 59.4 °F 29.9 in ENE 5.1 mph 13.9 mph 49 % 0 in
02:40 80.1 °F 59.2 °F 29.9 in ESE 4.4 mph 8.5 mph 49 % 0 in
02:45 79.9 °F 59.5 °F 29.9 in ESE 3.5 mph 8.5 mph 50 % 0 in
02:50 79.7 °F 59.4 °F 29.9 in ESE 2.8 mph 8.7 mph 50 % 0 in
02:55 79.5 °F 59.2 °F 29.9 in East 3.1 mph 8.7 mph 50 % 0 in
03:00 79.3 °F 59.2 °F 29.9 in ESE 3.3 mph 8.1 mph 50 % 0 in
03:05 79.2 °F 59.5 °F 29.9 in SE 4.1 mph 8.7 mph 51 % 0 in
03:10 78.6 °F 60.1 °F 29.9 in SSE 4.1 mph 8.7 mph 53 % 0 in
03:15 78.1 °F 60.1 °F 29.9 in South 3.7 mph 9.8 mph 54 % 0 in
03:20 77.7 °F 59.7 °F 29.9 in South 3.7 mph 9.8 mph 54 % 0 in
03:25 77.4 °F 59.9 °F 29.9 in SSW 3.2 mph 6.3 mph 55 % 0 in
03:30 76.8 °F 60.4 °F 29.9 in South 3.5 mph 6.5 mph 57 % 0 in
03:35 76.5 °F 60.6 °F 29.9 in South 3.8 mph 6.5 mph 58 % 0 in
03:40 76.1 °F 61.2 °F 29.9 in SSW 2.1 mph 6.5 mph 60 % 0 in
03:45 75.6 °F 60.6 °F 29.9 in SSW 0.8 mph 3.8 mph 60 % 0 in
03:50 75 °F 61.2 °F 30 in NW 1.9 mph 3.8 mph 62 % 0 in
03:55 74.5 °F 61.5 °F 30 in NW 2.4 mph 3.6 mph 64 % 0 in
04:00 73.9 °F 61.3 °F 30 in WNW 1.4 mph 3.6 mph 65 % 0 in
04:05 73.6 °F 61.5 °F 30 in WNW 1 mph 2.9 mph 66 % 0 in
04:10 73.2 °F 62.1 °F 30 in NW 0.6 mph 2.9 mph 68 % 0 in
04:15 72.9 °F 61.7 °F 30 in Calm     68 % 0 in
04:20 72.5 °F 61.7 °F 30 in Calm     69 % 0 in
04:25 72.1 °F 61.3 °F 30 in Calm     69 % 0 in
04:30 71.8 °F 61.5 °F 30 in Calm     70 % 0 in
04:35 71.4 °F 61.5 °F 30 in Calm     71 % 0 in
04:40 71.1 °F 61.5 °F 30 in WNW 0.2 mph 2.5 mph 72 % 0 in
04:45 70.9 °F 61.3 °F 30 in NW 0.9 mph 2.5 mph 72 % 0 in
04:50 70.5 °F 61.9 °F 30 in West 1.1 mph 2.5 mph 74 % 0 in
04:55 70.3 °F 61.7 °F 30 in SW 0.8 mph 2.5 mph 74 % 0 in
05:00 70 °F 62.1 °F 30 in WSW 0.4 mph 2.5 mph 76 % 0 in
05:05 69.8 °F 61.9 °F 30 in Calm     76 % 0 in
05:10 69.6 °F 62.1 °F 30 in Calm     77 % 0 in
05:19 69.3 °F 62.1 °F 30 in Calm     78 % 0 in
05:21 69.1 °F 61.9 °F 30 in Calm     78 % 0 in
05:22 69.1 °F 61.9 °F 30 in Calm     78 % 0 in
05:26 68.9 °F 62.1 °F 30 in Calm     79 % 0 in
05:27 68.9 °F 62.1 °F 30 in Calm     79 % 0 in
05:28 68.9 °F 62.1 °F 30 in Calm     79 % 0 in
05:33 68.7 °F 61.9 °F 30 in Calm     79 % 0 in
05:38 68.5 °F 62.1 °F 30 in Calm     80 % 0 in
05:43 68.4 °F 61.9 °F 30 in Calm     80 % 0 in
05:48 68.2 °F 61.9 °F 30 in Calm     80 % 0 in
05:53 68 °F 61.9 °F 30 in Calm     81 % 0 in
05:58 67.8 °F 62.1 °F 30 in Calm     82 % 0 in
06:03 67.8 °F 62.1 °F 30 in Calm     82 % 0 in
06:08 67.6 °F 61.9 °F 30 in Calm     82 % 0 in
06:13 67.6 °F 61.9 °F 30 in Calm     82 % 0 in
06:18 67.6 °F 62.2 °F 30 in Calm     83 % 0 in
06:23 67.6 °F 62.2 °F 30 in Calm     83 % 0 in
06:28 67.6 °F 62.2 °F 30 in Calm     83 % 0 in
06:33 67.6 °F 62.6 °F 30 in Calm     84 % 0 in
06:38 67.6 °F 63 °F 30 in Calm     85 % 0 in
06:44 67.8 °F 63.1 °F 30 in Calm     85 % 0 in
06:48 67.8 °F 63.5 °F 30 in Calm     86 % 0 in
06:53 68 °F 63.3 °F 30 in Calm     85 % 0 in
06:58 68 °F 63.3 °F 30 in Calm     85 % 0 in
07:04 68.2 °F 63.9 °F 30 in Calm     86 % 0 in
07:09 68.4 °F 64 °F 30 in Calm     86 % 0 in
07:14 68.7 °F 64.4 °F 30 in Calm     86 % 0 in
07:19 68.9 °F 64.6 °F 30 in Calm     86 % 0 in
07:24 69.1 °F 64.9 °F 30 in Calm     87 % 0 in
07:29 69.4 °F 65.5 °F 30 in Calm     87 % 0 in
07:34 69.8 °F 65.5 °F 30 in Calm     86 % 0 in
07:39 70.2 °F 65.8 °F 30 in Calm     86 % 0 in
07:44 70.5 °F 66 °F 30 in Calm     86 % 0 in
07:49 70.9 °F 66.6 °F 30 in Calm     86 % 0 in
07:54 71.2 °F 66.6 °F 30 in Calm     85 % 0 in
07:59 71.8 °F 66.4 °F 30 in ESE 0.1 mph 2.2 mph 83 % 0 in
08:04 72.5 °F 66.4 °F 30 in ESE 0.5 mph 2.5 mph 81 % 0 in
08:09 72.9 °F 66.7 °F 30 in ESE 0.6 mph 2.5 mph 81 % 0 in
08:14 73.4 °F 66.6 °F 30 in East 0.2 mph 1.6 mph 79 % 0 in
08:19 73.9 °F 66.6 °F 30 in ESE 0.3 mph 2.5 mph 78 % 0 in
08:24 74.3 °F 66.6 °F 30 in ESE 0.4 mph 2.5 mph 77 % 0 in
08:29 74.7 °F 66.6 °F 30 in East 0.4 mph 2.5 mph 76 % 0 in
08:34 75 °F 66.9 °F 30 in East 0.8 mph 2.7 mph 76 % 0 in
08:35 75.4 °F 66.9 °F 30 in ESE 1.2 mph 3.1 mph 75 % 0 in
08:40 76.1 °F 67.3 °F 30 in ESE 1.6 mph 3.1 mph 74 % 0 in
08:45 77 °F 66.9 °F 30 in ESE 1.1 mph 3.1 mph 71 % 0 in
08:50 77.7 °F 67.6 °F 30 in ESE 0.4 mph 2.5 mph 71 % 0 in
08:55 78.6 °F 67.3 °F 30 in East 0.3 mph 2.5 mph 68 % 0 in
09:00 79.3 °F 67.8 °F 30 in East 0.3 mph 2.2 mph 68 % 0 in
09:03 79.5 °F 67.6 °F 30 in East 0.6 mph 2.2 mph 67 % 0 in
09:08 80.1 °F 67.6 °F 30 in East 0.6 mph 2.2 mph 66 % 0 in
09:14 80.4 °F 67.6 °F 30 in East 0.4 mph 2.7 mph 65 % 0 in
09:18 81 °F 67.6 °F 30 in East 0.9 mph 2.7 mph 64 % 0 in
09:24 81.3 °F 67.1 °F 30 in East 1 mph 2.2 mph 62 % 0 in
09:29 81.9 °F 67.1 °F 30 in ESE 0.9 mph 2.7 mph 61 % 0 in
09:34 82.4 °F 67.1 °F 30 in SE 0.6 mph 3.8 mph 60 % 0 in
09:39 82.9 °F 67.6 °F 30 in SSE 0.7 mph 3.8 mph 60 % 0 in
09:44 83.5 °F 67.6 °F 30 in SSE 0.5 mph 2.9 mph 59 % 0 in
09:49 84 °F 68.2 °F 30 in SSE 0.7 mph 3.4 mph 59 % 0 in
09:54 84.4 °F 66.4 °F 30 in SE 1.7 mph 3.1 mph 55 % 0 in
09:59 85.1 °F 67.6 °F 30 in ESE 1.7 mph 3.6 mph 56 % 0 in
10:04 85.5 °F 67.5 °F 30 in SE 2.4 mph 6.5 mph 55 % 0 in
10:09 85.8 °F 66.7 °F 30 in SE 3 mph 6.5 mph 53 % 0 in
10:14 86.4 °F 66.7 °F 30 in ESE 3.5 mph 8.9 mph 52 % 0 in
10:19 86.5 °F 66.4 °F 30 in ESE 4.1 mph 8.9 mph 51 % 0 in
10:24 86.7 °F 65.8 °F 30 in ESE 4.8 mph 8.1 mph 50 % 0 in
10:29 87.1 °F 65.7 °F 30 in ESE 4.4 mph 8.1 mph 49 % 0 in
10:34 87.1 °F 64.9 °F 30 in East 3.5 mph 6.5 mph 48 % 0 in
10:39 87.1 °F 66.2 °F 30 in East 3.8 mph 6.5 mph 50 % 0 in
10:44 87.4 °F 66.6 °F 30 in ESE 4.9 mph 7.6 mph 50 % 0 in
10:49 87.4 °F 65.3 °F 30 in East 4.7 mph 7.6 mph 48 % 0 in
10:54 87.4 °F 65.8 °F 30 in East 3.9 mph 6.5 mph 49 % 0 in
10:59 87.6 °F 66 °F 30 in East 3.6 mph 6.5 mph 49 % 0 in
11:04 87.6 °F 65.5 °F 30 in East 4 mph 7.4 mph 48 % 0 in
11:06 87.6 °F 65.5 °F 30 in East 4 mph 7.4 mph 48 % 0 in
11:11 87.8 °F 65.7 °F 30 in ESE 4.3 mph 7.2 mph 48 % 0 in
11:16 88 °F 65.8 °F 30 in SE 4.9 mph 7.6 mph 48 % 0 in
11:22 88.2 °F 66.6 °F 30 in SE 5.3 mph 7.8 mph 49 % 0 in
11:27 88.3 °F 66.7 °F 30 in SE 5.1 mph 9.6 mph 49 % 0 in
11:32 88.5 °F 66.4 °F 30 in SE 4.9 mph 9.6 mph 48 % 0 in
11:37 88.7 °F 66.6 °F 30 in SE 4.5 mph 7.8 mph 48 % 0 in
11:42 88.9 °F 66.7 °F 30 in ESE 4.3 mph 7.6 mph 48 % 0 in
11:47 88.7 °F 65.8 °F 30 in ESE 4 mph 7.6 mph 47 % 0 in
11:52 88.9 °F 66.7 °F 30 in ESE 3.6 mph 6.3 mph 48 % 0 in
11:57 88.9 °F 66 °F 30 in ESE 4.1 mph 7.4 mph 47 % 0 in
12:02 89.1 °F 66.2 °F 30 in ESE 4.7 mph 10.7 mph 47 % 0 in
12:07 89.1 °F 66.2 °F 30 in ESE 4.9 mph 10.7 mph 47 % 0 in
12:12 88.9 °F 66.7 °F 30 in East 4.3 mph 8.5 mph 48 % 0 in
12:17 89.2 °F 66.4 °F 30 in East 3.5 mph 8.5 mph 47 % 0 in
12:22 89.2 °F 66.9 °F 30 in ENE 4.1 mph 10.5 mph 48 % 0 in
12:27 89.4 °F 67.1 °F 30 in East 4.1 mph 10.5 mph 48 % 0 in
12:32 89.6 °F 67.3 °F 30 in East 3 mph 7.6 mph 48 % 0 in
12:37 89.6 °F 67.3 °F 30 in ENE 3.7 mph 8.1 mph 48 % 0 in
12:42 89.6 °F 67.3 °F 30 in East 3.7 mph 8.1 mph 48 % 0 in
12:47 89.6 °F 66.7 °F 30 in East 3.5 mph 10.1 mph 47 % 0 in
12:52 89.6 °F 66.7 °F 30 in ENE 3.2 mph 10.1 mph 47 % 0 in
12:57 89.8 °F 67.5 °F 30 in East 2.6 mph 7.4 mph 48 % 0 in
13:02 89.8 °F 67.5 °F 30 in East 2.2 mph 6 mph 48 % 0 in
13:07 90.1 °F 68.4 °F 30 in East 2.3 mph 5.4 mph 49 % 0 in
13:12 90.3 °F 68 °F 30 in ENE 2.5 mph 5.4 mph 48 % 0 in
13:17 90.1 °F 67.8 °F 30 in ESE 2.6 mph 7.2 mph 48 % 0 in
13:22 90.5 °F 67.5 °F 30 in SE 3.4 mph 7.2 mph 47 % 0 in
13:27 90.7 °F 67.6 °F 30 in SE 3.4 mph 6.3 mph 47 % 0 in
13:32 90.5 °F 67.5 °F 30 in ENE 2.8 mph 6.3 mph 47 % 0 in
13:37 90.3 °F 68 °F 30 in NNE 2.3 mph 5.6 mph 48 % 0 in
13:42 90.5 °F 67.5 °F 30 in NNE 2.9 mph 7.4 mph 47 % 0 in
13:47 90.9 °F 67.8 °F 30 in NE 2.8 mph 7.4 mph 47 % 0 in
13:52 91 °F 68 °F 29.9 in East 2.9 mph 7.6 mph 47 % 0 in
13:57 91.2 °F 68.2 °F 29.9 in East 3.1 mph 7.6 mph 47 % 0 in
14:02 91.2 °F 68.2 °F 29.9 in ENE 2.4 mph 6.3 mph 47 % 0 in
14:07 91.4 °F 67.6 °F 29.9 in East 2.8 mph 6.3 mph 46 % 0 in
14:12 91.4 °F 67.6 °F 29.9 in East 2.9 mph 7.8 mph 46 % 0 in
14:17 91.6 °F 67.8 °F 29.9 in East 3 mph 7.8 mph 46 % 0 in
14:22 91.4 °F 67.6 °F 29.9 in East 2.7 mph 5.6 mph 46 % 0 in
14:27 91.6 °F 67.8 °F 29.9 in East 2.3 mph 6 mph 46 % 0 in
14:32 91.4 °F 67.6 °F 29.9 in East 2.5 mph 6 mph 46 % 0 in
14:33 91.4 °F 67.6 °F 29.9 in East 2.6 mph 6 mph 46 % 0 in
14:38 91.6 °F 67.8 °F 29.9 in ENE 2.2 mph 6.3 mph 46 % 0 in
14:43 91.8 °F 68 °F 29.9 in ESE 2.1 mph 6.3 mph 46 % 0 in
14:48 92.1 °F 69.1 °F 29.9 in SE 2.7 mph 5.8 mph 47 % 0 in
14:53 92.3 °F 68.5 °F 29.9 in East 3.2 mph 7.4 mph 46 % 0 in
14:58 92.3 °F 67.8 °F 29.9 in ENE 3 mph 7.4 mph 45 % 0 in
15:03 92.1 °F 67.6 °F 29.9 in ENE 2.4 mph 8.1 mph 45 % 0 in
15:08 92.3 °F 68.5 °F 29.9 in ENE 2.1 mph 8.1 mph 46 % 0 in
15:13 91.9 °F 67.6 °F 29.9 in ENE 3 mph 7.4 mph 45 % 0 in
15:18 91.9 °F 67.6 °F 29.9 in East 3.7 mph 7.6 mph 45 % 0 in
15:24 91.8 °F 67.5 °F 29.9 in ENE 3.1 mph 7.6 mph 45 % 0 in
15:29 91.9 °F 67.6 °F 29.9 in East 3.2 mph 7.4 mph 45 % 0 in
15:34 92.3 °F 67.8 °F 29.9 in ESE 4.1 mph 7.4 mph 45 % 0 in
15:39 92.7 °F 68.9 °F 29.9 in SE 3.4 mph 7.4 mph 46 % 0 in
15:44 92.8 °F 68.4 °F 29.9 in ESE 3.2 mph 7.8 mph 45 % 0 in
15:49 92.8 °F 68.4 °F 29.9 in ESE 3.5 mph 7.8 mph 45 % 0 in
15:54 92.8 °F 67.6 °F 29.9 in East 3.2 mph 7.4 mph 44 % 0 in
15:59 92.7 °F 67.6 °F 29.9 in East 3.1 mph 7.4 mph 44 % 0 in
16:04 92.8 °F 67.6 °F 29.9 in ESE 3.3 mph 6.5 mph 44 % 0 in
16:09 93 °F 67.8 °F 29.9 in SE 3.9 mph 6.3 mph 44 % 0 in
16:14 93 °F 67.3 °F 29.9 in ESE 3.7 mph 6.3 mph 43 % 0 in
16:19 92.8 °F 67.1 °F 29.9 in East 3.3 mph 6 mph 43 % 0 in
16:24 92.8 °F 67.1 °F 29.9 in ESE 3.4 mph 6 mph 43 % 0 in
16:29 92.8 °F 67.1 °F 29.9 in East 2.8 mph 5.8 mph 43 % 0 in
16:34 93 °F 67.3 °F 29.9 in East 2.9 mph 6.5 mph 43 % 0 in
16:39 93 °F 67.3 °F 29.9 in East 3.5 mph 7.4 mph 43 % 0 in
16:44 93 °F 67.3 °F 29.9 in East 3.1 mph 7.4 mph 43 % 0 in
16:49 92.8 °F 66.4 °F 29.9 in East 2.6 mph 6 mph 42 % 0 in
16:54 93 °F 66.6 °F 29.9 in ESE 2.8 mph 6 mph 42 % 0 in
16:59 92.8 °F 66.4 °F 29.9 in East 2.8 mph 6 mph 42 % 0 in
17:04 92.8 °F 66.4 °F 29.9 in ENE 2.4 mph 7.2 mph 42 % 0 in
17:09 93 °F 66.6 °F 29.9 in East 2.8 mph 7.2 mph 42 % 0 in
17:14 93 °F 66.6 °F 29.9 in ESE 3.2 mph 7.4 mph 42 % 0 in
17:19 93 °F 66.6 °F 29.9 in ESE 3.6 mph 7.4 mph 42 % 0 in
17:24 92.8 °F 66.4 °F 29.9 in ESE 3.5 mph 7.4 mph 42 % 0 in
17:27 92.8 °F 66.4 °F 29.9 in East 3.5 mph 7.8 mph 42 % 0 in
17:32 92.8 °F 66.4 °F 29.9 in ESE 3.7 mph 7.8 mph 42 % 0 in
17:42 92.7 °F 66.2 °F 29.9 in ESE 3.6 mph 8.7 mph 42 % 0 in
17:47 92.5 °F 66 °F 29.9 in East 2.8 mph 7.2 mph 42 % 0 in
17:52 92.3 °F 65.8 °F 29.9 in East 2.8 mph 7.2 mph 42 % 0 in
17:57 92.1 °F 65.7 °F 29.9 in ESE 3 mph 7.6 mph 42 % 0 in
18:02 91.9 °F 65.7 °F 29.9 in ESE 3.2 mph 7.6 mph 42 % 0 in
18:03 91.8 °F 65.5 °F 29.9 in ESE 3.2 mph 7.6 mph 42 % 0 in
18:09 91.4 °F 65.1 °F 29.9 in East 2.6 mph 5.8 mph 42 % 0 in
18:14 90.9 °F 65.3 °F 29.9 in East 2.6 mph 6.3 mph 43 % 0 in
18:19 90.5 °F 64.9 °F 29.9 in ESE 2.6 mph 6.3 mph 43 % 0 in
18:24 90.1 °F 64.6 °F 29.9 in ESE 2.8 mph 6 mph 43 % 0 in
18:29 89.8 °F 64.2 °F 29.9 in ESE 3.2 mph 6.3 mph 43 % 0 in
18:34 89.4 °F 64.6 °F 29.9 in ESE 3.3 mph 6.3 mph 44 % 0 in
18:39 89.2 °F 65.1 °F 29.9 in ESE 2.5 mph 4.3 mph 45 % 0 in
18:44 89.1 °F 64.9 °F 29.9 in ESE 2.4 mph 6 mph 45 % 0 in
18:49 88.7 °F 65.3 °F 29.9 in ESE 2.4 mph 6 mph 46 % 0 in
18:54 88.5 °F 65.1 °F 29.9 in ESE 2.2 mph 4 mph 46 % 0 in
18:59 88.2 °F 65.5 °F 29.9 in East 1.8 mph 4 mph 47 % 0 in
19:04 87.6 °F 66 °F 29.9 in ENE 1 mph 3.6 mph 49 % 0 in
19:09 87.3 °F 66.4 °F 29.9 in ENE 0.5 mph 2.7 mph 50 % 0 in
19:14 86.9 °F 66.6 °F 29.9 in ESE 0.8 mph 3.1 mph 51 % 0 in
19:19 86.2 °F 67.6 °F 29.9 in ESE 0.9 mph 3.1 mph 54 % 0 in
19:24 85.6 °F 67.6 °F 29.9 in NNW 0.6 mph 2.7 mph 55 % 0 in
19:29 84.9 °F 68 °F 29.9 in NNW 0.5 mph 2.2 mph 57 % 0 in
19:34 84.4 °F 68 °F 29.9 in NNW 0.2 mph 2.2 mph 58 % 0 in
19:35 84 °F 68.2 °F 29.9 in North 0.1 mph   59 % 0 in
19:41 83.5 °F 68.5 °F 29.9 in Calm     61 % 0 in
19:46 82.8 °F 68.4 °F 29.9 in Calm   1.1 mph 62 % 0 in
19:51 82.4 °F 68.5 °F 29.9 in Calm   1.1 mph 63 % 0 in
19:56 81.9 °F 68.5 °F 29.9 in NNW 0.4 mph 2.5 mph 64 % 0 in
20:01 81.3 °F 68.9 °F 29.9 in North 0.6 mph 2.5 mph 66 % 0 in
20:06 81.1 °F 68.7 °F 29.9 in NNE 0.2 mph 1.6 mph 66 % 0 in
20:11 80.6 °F 68.5 °F 29.9 in Calm   1.6 mph 67 % 0 in
20:16 80.1 °F 68.5 °F 29.9 in North 0.2 mph 2.7 mph 68 % 0 in
20:26 79.5 °F 68 °F 29.9 in NW 1.1 mph 2.9 mph 68 % 0 in
20:31 79.2 °F 68.5 °F 29.9 in NW 0.5 mph 2.2 mph 70 % 0 in
20:36 78.6 °F 68.4 °F 29.9 in NNW 0.3 mph 2 mph 71 % 0 in
20:41 78.4 °F 68.7 °F 29.9 in North 0.2 mph 2.2 mph 72 % 0 in
20:46 77.9 °F 68.5 °F 29.9 in North 0.2 mph 2.2 mph 73 % 0 in
20:56 77.2 °F 68.2 °F 29.9 in Calm     74 % 0 in
21:01 77 °F 68.2 °F 29.9 in Calm     74 % 0 in
21:06 76.6 °F 68.5 °F 29.9 in Calm   1.1 mph 76 % 0 in
21:11 76.6 °F 68.5 °F 29.9 in NW 0.6 mph 2.7 mph 76 % 0 in
21:16 76.5 °F 68.7 °F 29.9 in NW 0.8 mph 2.7 mph 77 % 0 in
21:21 76.3 °F 68.5 °F 29.9 in North 0.2 mph   77 % 0 in
21:26 76.3 °F 68.9 °F 29.9 in Calm     78 % 0 in
21:31 76.1 °F 68.7 °F 29.9 in Calm     78 % 0 in
21:36 75.9 °F 68.5 °F 29.9 in Calm     78 % 0 in
21:41 75.9 °F 68.5 °F 29.9 in Calm     78 % 0 in
21:46 75.7 °F 68.4 °F 29.9 in Calm     78 % 0 in
21:51 75.7 °F 68.4 °F 29.9 in Calm     78 % 0 in
21:56 75.6 °F 68.2 °F 29.9 in Calm     78 % 0 in
22:02 75.4 °F 68.4 °F 29.9 in Calm     79 % 0 in
22:07 75.4 °F 68.4 °F 29.9 in Calm     79 % 0 in
22:12 75.2 °F 68.2 °F 29.9 in Calm     79 % 0 in
22:17 75.2 °F 68.2 °F 29.9 in Calm     79 % 0 in
22:22 74.8 °F 68.4 °F 29.9 in Calm     80 % 0 in
22:27 74.8 °F 68.4 °F 29.9 in Calm     80 % 0 in
22:32 74.8 °F 68.4 °F 29.9 in Calm     80 % 0 in
22:37 74.8 °F 68.4 °F 29.9 in Calm     80 % 0 in
22:42 74.8 °F 68.4 °F 29.9 in Calm     80 % 0 in
22:52 74.5 °F 68.4 °F 30 in Calm     81 % 0 in
22:57 74.5 °F 68.4 °F 30 in Calm     81 % 0 in
23:02 74.5 °F 68.4 °F 30 in Calm     81 % 0 in
23:07 74.3 °F 68.2 °F 30 in Calm     81 % 0 in
23:12 74.3 °F 68.2 °F 30 in Calm     81 % 0 in
23:17 74.1 °F 68.4 °F 30 in Calm     82 % 0 in
23:22 74.1 °F 67.8 °F 30 in Calm     81 % 0 in
23:27 74.1 °F 68.4 °F 30 in Calm     82 % 0 in
23:32 73.9 °F 68.2 °F 30 in Calm     82 % 0 in
23:37 73.9 °F 68.2 °F 30 in Calm     82 % 0 in
23:42 73.9 °F 68.2 °F 30 in Calm     82 % 0 in
23:47 73.8 °F 67.8 °F 30 in Calm     82 % 0 in
23:52 73.8 °F 67.8 °F 30 in Calm     82 % 0 in
23:57 73.6 °F 67.6 °F 30 in Calm     82 % 0 in
Vremenska postaja Senovo
Podatki zbrani iz Weather Underground - 3 mb

Script developed by  Jim McMurry - jmcmurry@mwt.net Adapted for the template by  Wim van der Kuil - Leuven-Template.eu

Vremenski podatki so objavljeni na:

WeatherCloud

Weather Underground

AWEKAS

HAMweather, WeatherForYou, PWS Weather

MapView

Geostik

Slovenia weather network

Oprema, ki se uporablja:

Vremenski program
Cumulus

Cumulus